TimeEDT,TemperatureF,Dew PointF,Humidity,Sea Level PressureIn,VisibilityMPH,Wind Direction,Wind SpeedMPH,Gust SpeedMPH,PrecipitationIn,Events,Conditions,WindDirDegrees,DateUTC
12:15 AM,68.0,64.4,88,30.49,10.0,NW,8.1,-,N/A,,Clear,320,2013-07-17 04:15:00
12:35 AM,68.0,64.4,88,30.49,10.0,NNW,9.2,-,N/A,,Clear,330,2013-07-17 04:35:00
12:55 AM,68.0,64.4,88,30.48,10.0,NW,8.1,-,N/A,,Clear,320,2013-07-17 04:55:00
1:15 AM,69.8,64.4,83,30.48,10.0,NW,5.8,-,N/A,,Scattered Clouds,320,2013-07-17 05:15:00
1:35 AM,69.8,64.4,83,30.47,10.0,NNW,8.1,-,N/A,,Clear,340,2013-07-17 05:35:00
2:15 AM,68.0,64.4,88,30.46,10.0,NNW,8.1,-,N/A,,Clear,340,2013-07-17 06:15:00
2:35 AM,69.8,64.4,83,30.46,10.0,NNW,6.9,-,N/A,,Clear,330,2013-07-17 06:35:00
2:55 AM,69.8,64.4,83,30.46,10.0,NW,5.8,-,N/A,,Clear,320,2013-07-17 06:55:00
3:15 AM,69.8,64.4,83,30.46,10.0,NNW,5.8,-,N/A,,Clear,340,2013-07-17 07:15:00
3:35 AM,69.8,64.4,83,30.46,10.0,NNW,5.8,-,N/A,,Clear,340,2013-07-17 07:35:00
3:55 AM,69.8,64.4,83,30.47,10.0,NNW,6.9,-,N/A,,Clear,340,2013-07-17 07:55:00
4:15 AM,69.8,64.4,83,30.47,10.0,North,8.1,-,N/A,,Clear,350,2013-07-17 08:15:00
4:35 AM,69.8,64.4,83,30.47,10.0,North,8.1,-,N/A,,Scattered Clouds,360,2013-07-17 08:35:00
4:55 AM,69.8,64.4,83,30.47,10.0,North,6.9,-,N/A,,Scattered Clouds,350,2013-07-17 08:55:00
5:15 AM,69.8,64.4,83,30.47,10.0,North,5.8,-,N/A,,Scattered Clouds,350,2013-07-17 09:15:00
5:35 AM,68.0,64.4,88,30.47,10.0,NNW,6.9,-,N/A,,Clear,340,2013-07-17 09:35:00
5:55 AM,66.2,64.4,94,30.48,10.0,NNW,5.8,-,N/A,,Clear,330,2013-07-17 09:55:00
6:15 AM,69.8,62.6,78,30.47,10.0,North,9.2,-,N/A,,Clear,360,2013-07-17 10:15:00
6:35 AM,69.8,62.6,78,30.48,10.0,NNW,8.1,-,N/A,,Clear,340,2013-07-17 10:35:00
6:55 AM,69.8,62.6,78,30.48,10.0,North,9.2,-,N/A,,Clear,360,2013-07-17 10:55:00
7:15 AM,69.8,64.4,83,30.48,10.0,North,6.9,-,N/A,,Clear,360,2013-07-17 11:15:00
7:35 AM,71.6,64.4,78,30.48,10.0,North,5.8,-,N/A,,Clear,10,2013-07-17 11:35:00
7:55 AM,69.8,64.4,83,30.48,10.0,NNW,5.8,-,N/A,,Clear,340,2013-07-17 11:55:00
8:15 AM,71.6,64.4,78,30.48,10.0,North,9.2,-,N/A,,Clear,350,2013-07-17 12:15:00
8:35 AM,71.6,64.4,78,30.49,10.0,North,8.1,-,N/A,,Clear,10,2013-07-17 12:35:00
8:55 AM,71.6,66.2,83,30.49,10.0,North,5.8,-,N/A,,Clear,360,2013-07-17 12:55:00
9:15 AM,73.4,66.2,78,30.49,10.0,North,6.9,-,N/A,,Clear,350,2013-07-17 13:15:00
9:35 AM,73.4,66.2,78,30.49,10.0,North,5.8,-,N/A,,Clear,360,2013-07-17 13:35:00
9:55 AM,71.6,66.2,83,30.48,10.0,North,4.6,-,N/A,,Clear,350,2013-07-17 13:55:00
10:15 AM,73.4,66.2,78,30.49,10.0,NW,5.8,-,N/A,,Clear,310,2013-07-17 14:15:00
10:35 AM,73.4,68.0,83,30.48,10.0,NW,5.8,-,N/A,,Clear,320,2013-07-17 14:35:00
10:55 AM,73.4,68.0,83,30.49,10.0,Calm,Calm,-,N/A,,Clear,0,2013-07-17 14:55:00
11:15 AM,75.2,69.8,83,30.49,10.0,North,3.5,-,N/A,,Clear,350,2013-07-17 15:15:00
11:35 AM,73.4,68.0,83,30.49,10.0,NNW,5.8,-,N/A,,Scattered Clouds,330,2013-07-17 15:35:00
11:55 AM,73.4,68.0,83,30.49,10.0,NW,4.6,-,N/A,,Scattered Clouds,320,2013-07-17 15:55:00
12:15 PM,75.2,68.0,78,30.48,10.0,NNW,6.9,-,N/A,,Mostly Cloudy,330,2013-07-17 16:15:00
12:35 PM,75.2,69.8,83,30.48,10.0,NW,6.9,-,N/A,,Mostly Cloudy,310,2013-07-17 16:35:00
12:55 PM,75.2,69.8,83,30.48,10.0,NW,5.8,-,N/A,,Mostly Cloudy,320,2013-07-17 16:55:00
1:15 PM,75.2,68.0,78,30.47,10.0,Calm,Calm,-,N/A,Thunderstorm,Mostly Cloudy,0,2013-07-17 17:15:00
1:35 PM,75.2,69.8,83,30.47,10.0,North,4.6,-,N/A,Thunderstorm,Thunderstorm,10,2013-07-17 17:35:00
1:55 PM,68.0,62.6,83,30.46,-9999.0,North,-9999.0,-,N/A,,Unknown,0,2013-07-17 17:55:00
2:15 PM,-9999,-9999,N/A,30.46,-9999.0,North,-9999.0,-,N/A,,Unknown,0,2013-07-17 18:15:00
2:35 PM,-9999,-9999,N/A,30.45,-9999.0,North,-9999.0,-,N/A,,Unknown,0,2013-07-17 18:35:00
2:55 PM,-9999,-9999,N/A,30.45,-9999.0,North,-9999.0,-,N/A,,Unknown,0,2013-07-17 18:55:00
3:15 PM,-9999,-9999,N/A,30.44,-9999.0,North,-9999.0,-,N/A,,Unknown,0,2013-07-17 19:15:00
3:35 PM,73.4,69.8,88,30.43,-9999.0,NE,3.5,23.0,N/A,,Unknown,50,2013-07-17 19:35:00
3:55 PM,73.4,69.8,88,30.42,10.0,Calm,Calm,-,N/A,,Scattered Clouds,0,2013-07-17 19:55:00
4:15 PM,73.4,69.8,88,30.42,10.0,Calm,Calm,-,N/A,,Clear,0,2013-07-17 20:15:00
4:35 PM,73.4,69.8,88,30.42,10.0,Calm,Calm,-,N/A,,Clear,0,2013-07-17 20:35:00
4:55 PM,73.4,69.8,88,30.42,10.0,Calm,Calm,-,N/A,,Clear,0,2013-07-17 20:55:00
5:15 PM,73.4,69.8,88,30.41,10.0,Calm,Calm,-,N/A,,Clear,0,2013-07-17 21:15:00
5:35 PM,73.4,71.6,94,30.40,10.0,Calm,Calm,-,N/A,,Clear,0,2013-07-17 21:35:00
5:55 PM,73.4,69.8,88,30.39,10.0,Calm,Calm,-,N/A,Thunderstorm,Scattered Clouds,0,2013-07-17 21:55:00
6:15 PM,73.4,69.8,88,30.39,10.0,ESE,4.6,-,N/A,,Scattered Clouds,120,2013-07-17 22:15:00
6:35 PM,73.4,69.8,88,30.41,10.0,ESE,4.6,-,N/A,,Clear,120,2013-07-17 22:35:00
6:55 PM,73.4,69.8,88,30.41,10.0,SE,3.5,-,N/A,,Scattered Clouds,130,2013-07-17 22:55:00
7:15 PM,73.4,69.8,88,30.41,7.0,SE,3.5,-,N/A,,Scattered Clouds,130,2013-07-17 23:15:00
7:35 PM,71.6,68.0,88,30.40,7.0,SE,3.5,-,N/A,Thunderstorm,Scattered Clouds,130,2013-07-17 23:35:00
7:55 PM,71.6,68.0,88,30.40,7.0,Calm,Calm,-,N/A,Thunderstorm,Thunderstorm,0,2013-07-17 23:55:00
8:15 PM,71.6,68.0,88,30.41,10.0,Calm,Calm,-,N/A,Thunderstorm,Thunderstorm,0,2013-07-18 00:15:00
8:35 PM,69.8,68.0,94,30.41,7.0,Calm,Calm,-,N/A,Thunderstorm,Clear,0,2013-07-18 00:35:00
8:55 PM,71.6,68.0,88,30.40,7.0,SSE,3.5,-,N/A,Thunderstorm,Clear,160,2013-07-18 00:55:00
9:15 PM,69.8,68.0,94,30.40,7.0,Calm,Calm,-,N/A,Thunderstorm,Clear,0,2013-07-18 01:15:00
9:35 PM,69.8,68.0,94,30.41,7.0,West,5.8,-,N/A,,Clear,270,2013-07-18 01:35:00
9:55 PM,69.8,68.0,94,30.41,7.0,WNW,4.6,-,N/A,,Clear,290,2013-07-18 01:55:00
10:15 PM,69.8,68.0,94,30.42,7.0,WNW,4.6,-,N/A,,Clear,300,2013-07-18 02:15:00
10:35 PM,69.8,69.8,100,30.42,7.0,WNW,5.8,-,N/A,,Clear,300,2013-07-18 02:35:00
10:55 PM,69.8,69.8,100,30.42,7.0,WNW,5.8,-,N/A,,Clear,300,2013-07-18 02:55:00
11:35 PM,69.8,66.2,88,30.42,10.0,NW,5.8,-,N/A,,Scattered Clouds,310,2013-07-18 03:35:00
11:55 PM,69.8,66.2,88,30.42,10.0,WNW,4.6,-,N/A,,Clear,300,2013-07-18 03:55:00